createdAt,value
2017-07-05T00:01:02.151Z,2.59
2017-07-05T00:02:04.964Z,2.64
2017-07-05T00:03:08.392Z,2.60
2017-07-05T00:04:14.117Z,2.60
2017-07-05T00:05:16.769Z,2.56
2017-07-05T00:06:21.121Z,2.64
2017-07-05T00:07:23.903Z,2.69
2017-07-05T00:08:26.652Z,2.61
2017-07-05T00:09:29.306Z,2.63
2017-07-05T00:10:33.018Z,2.57
2017-07-05T00:11:35.712Z,2.66
2017-07-05T00:12:38.463Z,2.64
2017-07-05T00:13:41.304Z,2.63
2017-07-05T00:14:43.955Z,2.63
2017-07-05T00:15:46.883Z,2.63
2017-07-05T00:16:49.589Z,2.61
2017-07-05T00:17:52.292Z,2.53
2017-07-05T00:18:54.885Z,2.57
2017-07-05T00:19:58.375Z,2.63
2017-07-05T00:21:01.072Z,2.63
2017-07-05T00:22:03.676Z,2.60
2017-07-05T00:23:06.689Z,2.54
2017-07-05T00:24:09.492Z,2.59
2017-07-05T00:25:12.485Z,2.52
2017-07-05T00:26:15.301Z,2.53
2017-07-05T00:27:17.897Z,2.54
2017-07-05T00:28:20.632Z,2.49
2017-07-05T00:29:23.596Z,2.39
2017-07-05T00:30:26.208Z,2.34
2017-07-05T00:31:29.098Z,2.46
2017-07-05T00:32:31.895Z,2.48
2017-07-05T00:33:34.626Z,2.43
2017-07-05T00:34:37.175Z,2.35
2017-07-05T00:35:39.762Z,2.30
2017-07-05T00:36:42.555Z,2.31
2017-07-05T00:37:45.449Z,2.34
2017-07-05T00:38:48.224Z,2.34
2017-07-05T00:39:51.012Z,2.34
2017-07-05T00:40:53.828Z,2.34
2017-07-05T00:41:56.610Z,2.41
2017-07-05T00:42:59.985Z,2.27
2017-07-05T00:44:02.848Z,2.30
2017-07-05T00:45:05.783Z,2.30
2017-07-05T00:46:08.461Z,2.28
2017-07-05T00:47:11.163Z,2.25
2017-07-05T00:48:13.862Z,2.24
2017-07-05T00:49:16.686Z,2.25
2017-07-05T00:50:19.376Z,2.24
2017-07-05T00:51:22.056Z,2.16
2017-07-05T00:52:24.724Z,2.17
2017-07-05T00:53:27.461Z,2.20
2017-07-05T00:54:31.926Z,2.14
2017-07-05T00:55:34.653Z,2.20
2017-07-05T00:56:37.972Z,2.07
2017-07-05T00:57:40.855Z,2.16
2017-07-05T00:58:43.664Z,2.12
2017-07-05T00:59:46.359Z,2.17
2017-07-05T01:00:49.157Z,2.02
2017-07-05T01:01:52.096Z,2.16
2017-07-05T01:02:54.825Z,2.17
2017-07-05T01:03:57.570Z,2.10
2017-07-05T01:05:00.171Z,2.10
2017-07-05T01:06:04.480Z,2.06
2017-07-05T01:07:07.077Z,2.10
2017-07-05T01:08:11.509Z,2.06
2017-07-05T01:09:14.339Z,2.00
2017-07-05T01:10:17.265Z,2.06
2017-07-05T01:11:20.032Z,2.07
2017-07-05T01:12:22.811Z,1.99
2017-07-05T01:13:28.534Z,1.93
2017-07-05T01:14:31.331Z,1.90
2017-07-05T01:15:34.110Z,1.91
2017-07-05T01:16:36.804Z,1.90
2017-07-05T01:17:39.455Z,1.88
2017-07-05T01:18:42.049Z,1.83
2017-07-05T01:19:44.656Z,1.80
2017-07-05T01:20:47.961Z,1.81
2017-07-05T01:21:52.479Z,1.91
2017-07-05T01:22:55.236Z,1.90
2017-07-05T01:23:57.966Z,1.83
2017-07-05T01:25:00.534Z,1.73
2017-07-05T01:26:03.122Z,1.77
2017-07-05T01:27:06.363Z,1.80
2017-07-05T01:28:09.132Z,1.83
2017-07-05T01:29:11.787Z,1.70
2017-07-05T01:30:15.009Z,1.73
2017-07-05T01:31:17.916Z,1.73
2017-07-05T01:32:20.847Z,1.79
2017-07-05T01:33:23.620Z,1.77
2017-07-05T01:34:26.314Z,1.79
2017-07-05T01:35:29.108Z,1.73
2017-07-05T01:36:31.866Z,1.72
2017-07-05T01:37:34.690Z,1.69
2017-07-05T01:38:37.517Z,1.76
2017-07-05T01:39:42.135Z,1.60
2017-07-05T01:40:44.885Z,1.70
2017-07-05T01:41:47.718Z,1.72
2017-07-05T01:42:50.703Z,1.63
2017-07-05T01:43:53.460Z,1.70
2017-07-05T01:44:56.128Z,1.70
2017-07-05T01:45:58.952Z,1.63
2017-07-05T01:47:01.749Z,1.66
2017-07-05T01:48:04.464Z,1.63
2017-07-05T01:49:07.250Z,1.63
2017-07-05T01:50:10.089Z,1.69
2017-07-05T01:51:13.034Z,1.63
2017-07-05T01:52:15.885Z,1.66
2017-07-05T01:53:18.904Z,1.62
2017-07-05T01:54:21.863Z,1.65
2017-07-05T01:55:24.488Z,1.63
2017-07-05T01:56:29.478Z,1.58
2017-07-05T01:57:33.033Z,1.55
2017-07-05T01:58:35.815Z,1.50
2017-07-05T01:59:38.954Z,1.50
2017-07-05T02:00:41.923Z,1.41
2017-07-05T02:01:44.681Z,1.34
2017-07-05T02:02:47.621Z,1.42
2017-07-05T02:03:50.414Z,1.33
2017-07-05T02:04:55.080Z,1.29
2017-07-05T02:05:57.937Z,1.27
2017-07-05T02:07:00.724Z,1.29
2017-07-05T02:08:03.378Z,1.18
2017-07-05T02:09:06.209Z,1.16
2017-07-05T02:10:09.051Z,1.16
2017-07-05T02:11:11.840Z,1.16
2017-07-05T02:12:14.868Z,1.26
2017-07-05T02:13:17.502Z,1.24
2017-07-05T02:14:21.307Z,1.16
2017-07-05T02:15:24.064Z,1.16
2017-07-05T02:16:26.868Z,1.14
2017-07-05T02:17:29.844Z,1.14
2017-07-05T02:18:32.554Z,1.05
2017-07-05T02:19:35.374Z,1.02
2017-07-05T02:20:38.163Z,1.00
2017-07-05T02:21:41.061Z,0.98
2017-07-05T02:22:43.734Z,1.00
2017-07-05T02:23:46.802Z,0.94
2017-07-05T02:24:49.557Z,0.94
2017-07-05T02:25:52.385Z,1.04
2017-07-05T02:26:54.937Z,0.91
2017-07-05T02:27:58.423Z,0.91
2017-07-05T02:29:01.150Z,0.94
2017-07-05T02:30:05.588Z,0.88
2017-07-05T02:31:08.436Z,0.91
2017-07-05T02:32:11.367Z,0.93
2017-07-05T02:33:14.050Z,0.96
2017-07-05T02:34:17.621Z,1.02
2017-07-05T02:35:20.491Z,0.97
2017-07-05T02:36:23.336Z,1.02
2017-07-05T02:37:26.421Z,1.12
2017-07-05T02:38:29.175Z,1.12
2017-07-05T02:39:32.134Z,1.12
2017-07-05T02:40:34.854Z,1.09
2017-07-05T02:41:37.664Z,1.20
2017-07-05T02:42:40.431Z,1.24
2017-07-05T02:43:43.383Z,1.23
2017-07-05T02:44:46.081Z,1.22
2017-07-05T02:45:48.741Z,1.12
2017-07-05T02:46:51.512Z,1.29
2017-07-05T02:47:54.245Z,1.16
2017-07-05T02:48:57.122Z,1.12
2017-07-05T02:49:59.920Z,1.09
2017-07-05T02:51:02.710Z,1.08
2017-07-05T02:52:05.537Z,1.09
2017-07-05T02:53:08.495Z,1.00
2017-07-05T02:54:11.429Z,1.04
2017-07-05T02:55:14.334Z,1.06
2017-07-05T02:56:17.329Z,0.97
2017-07-05T02:57:20.219Z,0.96
2017-07-05T02:58:23.190Z,0.83
2017-07-05T02:59:25.943Z,0.76
2017-07-05T03:00:29.711Z,0.75
2017-07-05T03:01:31.679Z,0.69
2017-07-05T03:02:37.066Z,0.53
2017-07-05T03:03:39.980Z,0.53
2017-07-05T03:04:42.720Z,0.51
2017-07-05T03:05:45.682Z,0.49
2017-07-05T03:06:48.645Z,0.44
2017-07-05T03:07:51.351Z,0.38
2017-07-05T03:08:53.950Z,0.33
2017-07-05T03:09:59.765Z,0.35
2017-07-05T03:11:02.540Z,0.46
2017-07-05T03:12:05.226Z,0.42
2017-07-05T03:13:10.729Z,0.38
2017-07-05T03:14:13.503Z,0.46
2017-07-05T03:15:16.402Z,0.53
2017-07-05T03:16:19.225Z,0.51
2017-07-05T03:17:22.104Z,0.53
2017-07-05T03:18:25.082Z,0.51
2017-07-05T03:19:27.950Z,0.51
2017-07-05T03:20:30.637Z,0.42
2017-07-05T03:21:33.533Z,0.42
2017-07-05T03:22:36.353Z,0.36
2017-07-05T03:23:39.330Z,0.36
2017-07-05T03:24:42.069Z,0.44
2017-07-05T03:25:44.814Z,0.36
2017-07-05T03:26:47.667Z,0.32
2017-07-05T03:27:50.365Z,0.36
2017-07-05T03:28:53.022Z,0.29
2017-07-05T03:29:55.903Z,0.21
2017-07-05T03:30:58.755Z,0.29
2017-07-05T03:32:01.384Z,0.23
2017-07-05T03:33:07.198Z,0.21
2017-07-05T03:34:10.076Z,0.08
2017-07-05T03:35:12.891Z,0.13
2017-07-05T03:36:15.759Z,0.02
2017-07-05T03:37:18.674Z,-0.01
2017-07-05T03:38:21.305Z,-0.03
2017-07-05T03:39:23.932Z,0.03
2017-07-05T03:40:26.613Z,0.00
2017-07-05T03:41:29.500Z,-0.03
2017-07-05T03:42:32.514Z,-0.01
2017-07-05T03:43:35.461Z,0.02
2017-07-05T03:44:38.186Z,0.04
2017-07-05T03:45:41.969Z,0.17
2017-07-05T03:46:46.557Z,0.20
2017-07-05T03:47:49.161Z,0.21
2017-07-05T03:48:52.592Z,0.29
2017-07-05T03:49:55.455Z,0.26
2017-07-05T03:50:58.308Z,0.26
2017-07-05T03:52:01.229Z,0.42
2017-07-05T03:53:04.212Z,0.38
2017-07-05T03:54:08.175Z,0.46
2017-07-05T03:55:12.741Z,0.38
2017-07-05T03:56:15.621Z,0.36
2017-07-05T03:57:18.340Z,0.38
2017-07-05T03:58:20.962Z,0.44
2017-07-05T03:59:23.787Z,0.44
2017-07-05T04:00:26.452Z,0.51
2017-07-05T04:01:29.309Z,0.53
2017-07-05T04:02:32.187Z,0.57
2017-07-05T04:03:34.811Z,0.55
2017-07-05T04:04:39.869Z,0.72
2017-07-05T04:05:42.731Z,0.78
2017-07-05T04:06:45.575Z,0.84
2017-07-05T04:07:48.449Z,0.80
2017-07-05T04:08:51.186Z,0.98
2017-07-05T04:09:54.107Z,1.02
2017-07-05T04:10:57.143Z,0.97
2017-07-05T04:12:00.033Z,1.12
2017-07-05T04:13:02.887Z,1.09
2017-07-05T04:14:05.904Z,1.14
2017-07-05T04:15:08.791Z,1.20
2017-07-05T04:16:11.654Z,1.26
2017-07-05T04:17:14.462Z,1.20
2017-07-05T04:18:17.242Z,1.20
2017-07-05T04:19:20.194Z,1.18
2017-07-05T04:20:23.264Z,1.32
2017-07-05T04:21:25.939Z,1.23
2017-07-05T04:22:28.663Z,1.16
2017-07-05T04:26:41.372Z,1.16
2017-07-05T04:27:43.938Z,1.11
2017-07-05T04:29:09.689Z,1.09
